Terminal Aerodrome Forecast
Issued by NWS St Louis, MO

Home | Current Version | Previous Version | Text Only | Print | Product List | Glossary On
Versions: 1 2 3 4 5 6 7 8 9 10 11 12 13 14 15 16 17 18 19 20 21 22 23 24 25 26 27 28 29 30 31
113
FTUS43 KLSX 211512 AAA
TAFSTL
TAF AMD
KSTL 211512Z 2115/2218 35012G20KT P6SM OVC015
     FM211700 01010KT P6SM OVC025
     FM212200 03010G16KT P6SM VCSH OVC020
     FM220300 04009KT P6SM OVC015
     FM220600 04009KT P6SM -FZRA OVC015
     FM221000 04008KT P6SM SCT008 OVC010
     FM221400 04007KT P6SM OVC008=

USA.gov is the U.S. government's official web portal to all federal, state and local government web resources and services.